createdAt,value
2019-02-18T00:00:21.112Z,0.80
2019-02-18T00:04:27.715Z,0.90
2019-02-18T00:08:32.720Z,0.70
2019-02-18T00:12:37.728Z,0.60
2019-02-18T00:16:42.775Z,0.60
2019-02-18T00:20:47.720Z,0.70
2019-02-18T00:24:52.731Z,0.70
2019-02-18T00:28:57.737Z,0.70
2019-02-18T00:33:03.721Z,0.80
2019-02-18T00:37:08.769Z,0.90
2019-02-18T00:41:13.776Z,1.00
2019-02-18T00:45:18.758Z,0.90
2019-02-18T00:49:23.763Z,0.90
2019-02-18T00:53:28.775Z,0.90
2019-02-18T00:57:34.750Z,1.00
2019-02-18T01:01:39.760Z,0.90
2019-02-18T01:05:44.773Z,1.00
2019-02-18T01:09:49.776Z,1.00
2019-02-18T01:13:54.794Z,1.00
2019-02-18T01:17:59.800Z,1.10
2019-02-18T01:22:04.809Z,1.00
2019-02-18T01:26:09.830Z,1.00
2019-02-18T01:30:16.550Z,0.90
2019-02-18T01:34:21.655Z,0.80
2019-02-18T01:38:26.675Z,0.80
2019-02-18T01:42:31.696Z,0.70
2019-02-18T01:46:36.699Z,0.70
2019-02-18T01:50:41.716Z,0.80
2019-02-18T01:54:46.765Z,0.70
2019-02-18T01:58:51.764Z,0.60
2019-02-18T02:02:56.771Z,0.60
2019-02-18T02:07:01.787Z,0.50
2019-02-18T02:11:06.764Z,0.50
2019-02-18T02:15:17.743Z,0.50
2019-02-18T02:19:22.759Z,0.60
2019-02-18T02:23:27.784Z,0.50
2019-02-18T02:27:32.764Z,0.40
2019-02-18T02:31:37.743Z,0.40
2019-02-18T02:35:42.759Z,0.30
2019-02-18T02:39:47.788Z,0.20
2019-02-18T02:43:52.808Z,0.20
2019-02-18T02:47:57.803Z,0.10
2019-02-18T02:52:02.788Z,0.20
2019-02-18T02:56:07.790Z,0.20
2019-02-18T03:00:15.331Z,0.30
2019-02-18T03:04:20.363Z,0.30
2019-02-18T03:08:25.359Z,0.30
2019-02-18T03:12:30.365Z,0.30
2019-02-18T03:16:35.356Z,0.20
2019-02-18T03:20:40.368Z,0.20
2019-02-18T03:25:11.014Z,0.20
2019-02-18T03:29:33.572Z,0.10
2019-02-18T03:33:47.765Z,0.20
2019-02-18T03:37:52.766Z,0.30
2019-02-18T03:41:57.988Z,0.40
2019-02-18T03:46:03.087Z,0.40
2019-02-18T03:50:08.083Z,0.40
2019-02-18T03:54:14.052Z,0.40
2019-02-18T03:58:19.073Z,0.20
2019-02-18T04:02:24.034Z,0.10
2019-02-18T04:06:29.028Z,0.00
2019-02-18T04:10:34.033Z,-0.10
2019-02-18T04:14:39.045Z,-0.20
2019-02-18T04:18:44.068Z,-0.30
2019-02-18T04:22:49.051Z,-0.30
2019-02-18T04:26:54.061Z,-0.40
2019-02-18T04:30:59.171Z,-0.50
2019-02-18T04:35:04.756Z,-0.50
2019-02-18T04:39:09.768Z,-0.60
2019-02-18T04:43:14.796Z,-0.70
2019-02-18T04:47:19.784Z,-0.80
2019-02-18T04:51:24.800Z,-0.90
2019-02-18T04:55:29.817Z,-0.80
2019-02-18T04:59:34.820Z,-0.80
2019-02-18T05:03:39.824Z,-0.80
2019-02-18T05:07:44.815Z,-0.80
2019-02-18T05:11:49.836Z,-0.70
2019-02-18T05:15:54.869Z,-0.70
2019-02-18T05:19:59.875Z,-0.80
2019-02-18T05:24:05.001Z,-0.80
2019-02-18T05:28:09.992Z,-0.80
2019-02-18T05:32:15.007Z,-0.80
2019-02-18T05:36:20.011Z,-0.90
2019-02-18T05:40:25.066Z,-1.10
2019-02-18T05:44:30.108Z,-1.20
2019-02-18T05:48:35.133Z,-1.20
2019-02-18T05:52:40.120Z,-1.10
2019-02-18T05:56:45.124Z,-1.10
2019-02-18T06:00:50.138Z,-1.10
2019-02-18T06:04:55.145Z,-1.00
2019-02-18T06:09:00.159Z,-0.80
2019-02-18T06:13:08.741Z,-0.80
2019-02-18T06:17:14.145Z,-0.70
2019-02-18T06:21:19.143Z,-0.60
2019-02-18T06:25:24.172Z,-0.60
2019-02-18T06:29:29.259Z,-0.60
2019-02-18T06:33:34.252Z,-0.70
2019-02-18T06:37:39.260Z,-0.60
2019-02-18T06:41:44.278Z,-0.40
2019-02-18T06:45:56.665Z,0.10
2019-02-18T06:50:01.673Z,1.90
2019-02-18T06:54:06.749Z,4.40
2019-02-18T06:58:28.730Z,5.70
2019-02-18T07:02:38.091Z,6.50
2019-02-18T07:06:48.195Z,7.90
2019-02-18T07:10:55.080Z,10.10
2019-02-18T07:15:00.363Z,12.50
2019-02-18T07:19:05.634Z,13.70
2019-02-18T07:23:10.928Z,15.10
2019-02-18T07:27:16.289Z,16.30
2019-02-18T07:31:21.996Z,17.40
2019-02-18T07:35:27.708Z,18.40
2019-02-18T07:39:32.993Z,20.50
2019-02-18T07:43:38.264Z,21.80
2019-02-18T07:47:43.567Z,22.60
2019-02-18T07:51:48.860Z,23.00
2019-02-18T07:55:54.148Z,23.20
2019-02-18T07:59:59.436Z,23.90
2019-02-18T08:04:04.723Z,24.80
2019-02-18T08:08:10.007Z,25.70
2019-02-18T08:12:15.297Z,26.50
2019-02-18T08:16:20.600Z,27.00
2019-02-18T08:20:25.892Z,27.50
2019-02-18T08:24:31.213Z,28.30
2019-02-18T08:28:36.569Z,29.10
2019-02-18T08:32:41.876Z,29.70
2019-02-18T08:36:47.148Z,29.90
2019-02-18T08:40:53.525Z,28.50
2019-02-18T08:44:58.802Z,27.70
2019-02-18T08:49:04.072Z,28.50
2019-02-18T08:53:09.363Z,28.90
2019-02-18T08:57:14.681Z,29.50
2019-02-18T09:01:19.989Z,30.30
2019-02-18T09:05:25.260Z,30.30
2019-02-18T09:09:30.591Z,30.70
2019-02-18T09:13:35.891Z,31.10
2019-02-18T09:17:41.251Z,30.70
2019-02-18T09:21:47.876Z,31.10
2019-02-18T09:25:53.563Z,32.00
2019-02-18T09:29:59.786Z,32.90
2019-02-18T09:34:05.109Z,32.90
2019-02-18T09:38:10.393Z,32.80
2019-02-18T09:42:15.718Z,33.10
2019-02-18T09:46:20.980Z,31.90
2019-02-18T09:50:26.264Z,31.90
2019-02-18T09:54:31.553Z,31.50
2019-02-18T09:58:36.835Z,31.70
2019-02-18T10:02:42.157Z,32.20
2019-02-18T10:06:47.480Z,32.30
2019-02-18T10:10:55.915Z,33.10
2019-02-18T10:14:59.686Z,33.10
2019-02-18T10:19:05.162Z,34.00
2019-02-18T10:23:10.438Z,33.30
2019-02-18T10:27:15.737Z,31.40
2019-02-18T10:31:21.024Z,30.80
2019-02-18T10:35:26.564Z,30.10
2019-02-18T10:39:31.984Z,29.50
2019-02-18T10:43:37.273Z,30.20
2019-02-18T10:47:42.590Z,31.80
2019-02-18T10:51:47.863Z,31.30
2019-02-18T10:55:53.211Z,31.40
2019-02-18T10:59:59.296Z,31.90
2019-02-18T11:04:04.947Z,31.80
2019-02-18T11:08:10.239Z,31.90
2019-02-18T11:12:15.519Z,30.90
2019-02-18T11:16:20.809Z,30.40
2019-02-18T11:20:26.104Z,31.30
2019-02-18T11:24:31.415Z,31.10
2019-02-18T11:28:36.711Z,30.80
2019-02-18T11:32:42.073Z,31.20
2019-02-18T11:36:47.364Z,31.80
2019-02-18T11:40:52.731Z,32.00
2019-02-18T11:44:58.036Z,32.80
2019-02-18T11:49:03.639Z,32.60
2019-02-18T11:53:08.984Z,31.40
2019-02-18T11:57:14.293Z,30.00
2019-02-18T12:01:19.579Z,30.10
2019-02-18T12:05:24.927Z,30.80
2019-02-18T12:09:30.217Z,30.80
2019-02-18T12:13:35.505Z,30.10
2019-02-18T12:17:40.930Z,29.60
2019-02-18T12:21:46.301Z,28.40
2019-02-18T12:25:51.959Z,27.90
2019-02-18T12:29:57.257Z,27.10
2019-02-18T12:34:02.543Z,25.90
2019-02-18T12:38:07.868Z,24.60
2019-02-18T12:42:13.236Z,23.00
2019-02-18T12:46:18.969Z,21.10
2019-02-18T12:50:25.225Z,19.60
2019-02-18T12:54:31.157Z,18.80
2019-02-18T12:58:36.446Z,18.10
2019-02-18T13:02:44.688Z,17.70
2019-02-18T13:06:49.275Z,17.60
2019-02-18T13:10:54.668Z,17.40
2019-02-18T13:15:00.005Z,17.20
2019-02-18T13:19:05.292Z,17.10
2019-02-18T13:23:10.607Z,17.00
2019-02-18T13:27:15.964Z,16.80
2019-02-18T13:31:21.226Z,16.70
2019-02-18T13:35:26.519Z,16.70
2019-02-18T13:39:31.813Z,16.60
2019-02-18T13:43:37.284Z,16.60
2019-02-18T13:47:42.572Z,16.60
2019-02-18T13:51:54.713Z,16.50
2019-02-18T13:55:55.735Z,16.50
2019-02-18T14:00:01.094Z,16.40
2019-02-18T14:04:08.060Z,16.30
2019-02-18T14:08:13.385Z,16.20
2019-02-18T14:12:18.646Z,16.30
2019-02-18T14:16:23.936Z,16.30
2019-02-18T14:20:29.219Z,16.20
2019-02-18T14:24:34.811Z,16.10
2019-02-18T14:28:40.092Z,16.00
2019-02-18T14:32:45.605Z,15.90
2019-02-18T14:36:50.843Z,15.90
2019-02-18T14:40:57.527Z,15.80
2019-02-18T14:45:02.884Z,15.60
2019-02-18T14:49:08.180Z,15.40
2019-02-18T14:53:13.919Z,15.20
2019-02-18T14:57:19.380Z,15.00
2019-02-18T15:01:24.752Z,14.80
2019-02-18T15:05:30.064Z,14.60
2019-02-18T15:09:35.398Z,14.50
2019-02-18T15:13:40.683Z,14.30
2019-02-18T15:17:45.956Z,14.20
2019-02-18T15:21:51.256Z,14.00
2019-02-18T15:25:56.554Z,13.80
2019-02-18T15:30:02.065Z,13.60
2019-02-18T15:34:07.431Z,13.40
2019-02-18T15:38:12.749Z,13.40
2019-02-18T15:42:18.059Z,13.20
2019-02-18T15:46:23.383Z,13.00
2019-02-18T15:50:28.818Z,12.90
2019-02-18T15:54:34.150Z,12.70
2019-02-18T15:58:41.767Z,12.50
2019-02-18T16:02:46.765Z,12.30
2019-02-18T16:06:52.102Z,12.10
2019-02-18T16:10:57.351Z,11.90
2019-02-18T16:15:02.667Z,11.70
2019-02-18T16:19:09.043Z,11.50
2019-02-18T16:23:14.310Z,11.50
2019-02-18T16:27:19.596Z,11.40
2019-02-18T16:31:24.903Z,11.20
2019-02-18T16:35:30.192Z,11.10
2019-02-18T16:39:35.755Z,11.00
2019-02-18T16:43:41.429Z,10.90
2019-02-18T16:47:47.543Z,10.60
2019-02-18T16:51:52.960Z,10.40
2019-02-18T16:55:58.300Z,10.00
2019-02-18T17:00:07.518Z,9.70
2019-02-18T17:04:13.863Z,9.70
2019-02-18T17:08:20.200Z,10.00
2019-02-18T17:12:25.492Z,10.30
2019-02-18T17:16:31.140Z,10.20
2019-02-18T17:20:36.541Z,10.00
2019-02-18T17:24:41.957Z,9.90
2019-02-18T17:28:47.570Z,9.90
2019-02-18T17:32:52.955Z,9.90
2019-02-18T17:36:59.005Z,9.80
2019-02-18T17:41:04.504Z,9.60
2019-02-18T17:45:15.734Z,9.40
2019-02-18T17:49:21.008Z,9.10
2019-02-18T17:53:26.356Z,8.70
2019-02-18T17:57:31.700Z,8.50
2019-02-18T18:01:37.203Z,8.40
2019-02-18T18:05:42.515Z,8.40
2019-02-18T18:09:47.820Z,8.30
2019-02-18T18:13:52.779Z,8.10
2019-02-18T18:17:58.307Z,7.90
2019-02-18T18:22:03.931Z,7.80
2019-02-18T18:26:09.144Z,7.80
2019-02-18T18:30:18.362Z,7.80
2019-02-18T18:34:23.629Z,7.70
2019-02-18T18:38:28.703Z,7.60
2019-02-18T18:42:33.784Z,7.40
2019-02-18T18:46:38.788Z,7.30
2019-02-18T18:50:45.611Z,7.20
2019-02-18T18:54:50.623Z,7.10
2019-02-18T18:58:56.024Z,7.00
2019-02-18T19:03:02.100Z,6.80
2019-02-18T19:07:07.387Z,6.70
2019-02-18T19:11:12.391Z,6.60
2019-02-18T19:15:18.398Z,6.50
2019-02-18T19:19:23.459Z,6.30
2019-02-18T19:23:28.446Z,6.20
2019-02-18T19:27:33.660Z,6.10
2019-02-18T19:31:38.658Z,6.10
2019-02-18T19:35:43.667Z,6.20
2019-02-18T19:39:48.661Z,6.30
2019-02-18T19:43:53.655Z,6.20
2019-02-18T19:47:58.680Z,6.20
2019-02-18T19:52:03.678Z,6.20
2019-02-18T19:56:09.083Z,6.10
2019-02-18T20:00:17.007Z,6.00
2019-02-18T20:04:21.987Z,5.90
2019-02-18T20:08:26.984Z,5.60
2019-02-18T20:12:31.999Z,5.20
2019-02-18T20:16:36.995Z,4.80
2019-02-18T20:20:42.003Z,4.40
2019-02-18T20:24:48.256Z,4.30
2019-02-18T20:28:53.283Z,4.40
2019-02-18T20:32:58.288Z,4.70
2019-02-18T20:37:03.301Z,4.90
2019-02-18T20:41:08.304Z,5.10
2019-02-18T20:45:14.125Z,5.20
2019-02-18T20:49:19.125Z,5.20
2019-02-18T20:53:26.283Z,5.10
2019-02-18T20:57:31.244Z,4.90
2019-02-18T21:01:36.268Z,4.80
2019-02-18T21:05:41.243Z,4.80
2019-02-18T21:09:46.252Z,4.70
2019-02-18T21:13:51.253Z,4.70
2019-02-18T21:17:56.417Z,4.60
2019-02-18T21:22:01.404Z,4.70
2019-02-18T21:26:07.481Z,4.60
2019-02-18T21:30:16.743Z,4.50
2019-02-18T21:34:21.851Z,4.40
2019-02-18T21:38:26.861Z,4.30
2019-02-18T21:42:31.859Z,4.20
2019-02-18T21:46:36.880Z,4.20
2019-02-18T21:50:42.005Z,4.20
2019-02-18T21:54:46.948Z,4.00
2019-02-18T21:58:52.243Z,4.00
2019-02-18T22:02:57.253Z,3.90
2019-02-18T22:07:02.307Z,3.90
2019-02-18T22:11:07.295Z,3.80
2019-02-18T22:15:14.135Z,3.80
2019-02-18T22:19:19.155Z,3.70
2019-02-18T22:23:24.159Z,3.60
2019-02-18T22:27:29.159Z,3.70
2019-02-18T22:31:34.163Z,3.70
2019-02-18T22:35:39.151Z,3.60
2019-02-18T22:39:44.202Z,3.40
2019-02-18T22:43:49.563Z,3.20
2019-02-18T22:47:54.563Z,3.00
2019-02-18T22:51:59.563Z,3.00
2019-02-18T22:56:04.546Z,3.00
2019-02-18T23:00:15.675Z,3.00
2019-02-18T23:04:22.284Z,2.90
2019-02-18T23:08:27.286Z,2.90
2019-02-18T23:12:32.288Z,2.80
2019-02-18T23:16:37.283Z,2.70
2019-02-18T23:20:42.598Z,2.70
2019-02-18T23:24:47.592Z,2.60
2019-02-18T23:28:52.599Z,2.70
2019-02-18T23:32:58.695Z,2.70
2019-02-18T23:37:03.742Z,2.60
2019-02-18T23:41:08.738Z,2.60
2019-02-18T23:45:13.748Z,2.60
2019-02-18T23:49:18.751Z,2.50
2019-02-18T23:53:23.818Z,2.40
2019-02-18T23:57:29.360Z,2.20
